ADDS METAR Data INFO
IDs: Format: Raw Decoded Include TAF

Data at: 0636 UTC 15 Dec 2017

KHNB 150556Z AUTO 00000KT 10SM OVC035 M02/M05 A3009 RMK AO2 SLP197 T10171050 10000 21017 58002 FZRANO
KHNB 150456Z AUTO 27003KT 10SM OVC035 M02/M04 A3011 RMK AO2 SLP201 T10171044 400391033 FZRANO
KHNB 150356Z AUTO 00000KT 10SM OVC035 M01/M06 A3010 RMK AO2 SLP198 T10111056 FZRANO
KHNB 150256Z AUTO 00000KT 10SM OVC035 M01/M06 A3010 RMK AO2 SLP200 T10111061 50006 FZRANO
KHNB 150156Z AUTO 35003KT 10SM OVC035 M01/M06 A3010 RMK AO2 SLP201 T10061061 FZRANO
KHNB 150056Z AUTO 35004KT 10SM OVC033 M01/M06 A3009 RMK AO2 SLP196 T10061056 FZRANO
KHNB 142356Z AUTO 00000KT 10SM OVC033 M01/M04 A3008 RMK AO2 SLP193 T10061044 10006 21006 51010 FZRANO
KHNB 142156Z AUTO 30003KT 10SM OVC033 01/M06 A3007 RMK AO2 SLP187 T00061061 FZRANO
KHNB 142056Z AUTO 30004KT 10SM OVC031 01/M06 A3005 RMK AO2 SLP182 T00061061 53002 FZRANO
KHNB 141956Z AUTO 01004KT 10SM OVC031 01/M06 A3005 RMK AO2 SLP181 T00061061 FZRANO
KHNB 141856Z AUTO 02007KT 10SM OVC029 01/M06 A3004 RMK AO2 SLP176 T00061056 FZRANO
KHNB 141756Z AUTO 30005KT 10SM OVC029 01/M06 A3005 RMK AO2 SLP179 T00061056 10006 21033 50005 FZRANO
KHNB 141743Z AUTO 35006KT 10SM OVC029 00/M06 A3005 RMK AO2 FZRANO
KHNB 141656Z AUTO 35007KT 10SM OVC031 00/M06 A3006 RMK AO2 SLP182 T00001056 FZRANO
KHNB 141556Z AUTO 33005KT 10SM OVC031 00/M06 A3005 RMK AO2 SLP181 T00001056 FZRANO
KHNB 141539Z AUTO 36006KT 10SM OVC031 00/M06 A3005 RMK AO2 FZRANO
KHNB 141456Z AUTO 31006KT 10SM OVC029 M01/M05 A3003 RMK AO2 SLP174 T10111050 53024 FZRANO
KHNB 141356Z AUTO 31004KT 10SM OVC029 M02/M06 A3001 RMK AO2 SLP164 T10221056 FZRANO
KHNB 141256Z AUTO 28003KT 10SM OVC029 M03/M06 A2999 RMK AO2 SLP158 T10331056 FZRANO
KHNB 141214Z AUTO 34004KT 10SM BKN029 M03/M07 A2997 RMK AO2 FZRANO
KHNB 141156Z AUTO 33006KT 10SM SCT029 M03/M07 A2996 RMK AO2 SLP149 T10331067 10033 21033 51026 FZRANO
KHNB 141056Z AUTO 35007KT 10SM CLR M02/M07 A2993 RMK AO2 SLP140 T10221067 FZRANO
KHNB 140956Z AUTO 32010KT 10SM BKN037 M02/M06 A2992 RMK AO2 SLP134 T10171061 FZRANO
KHNB 140856Z AUTO 34010KT 10SM OVC031 01/M04 A2988 RMK AO2 SLP123 T00111044 53034 FZRANO
KHNB 140756Z AUTO 32012KT 10SM OVC025 02/M03 A2983 RMK AO2 SLP106 T00221028 FZRANO
KHNB 140656Z AUTO 31017G25KT 10SM OVC029 02/M03 A2980 RMK AO2 PK WND 31026/0619 SLP096 T00221033 FZRANO
KHNB 140556Z AUTO 32014G26KT 10SM OVC027 03/M02 A2978 RMK AO2 PK WND 31026/0547 SLP088 T00331022 10089 20033 51034
KHNB 140456Z AUTO 31014G19KT 10SM OVC029 04/M02 A2975 RMK AO2 PK WND 31026/0408 SLP075 T00391017 400891078
KHNB 140438Z AUTO 33011G18KT 10SM BKN029 OVC034 04/M01 A2974 RMK AO2 PK WND 31026/0408
KHNB 140356Z AUTO 30018G22KT 10SM BKN035 06/M01 A2972 RMK AO2 SLP065 T00561006
KHNB 140256Z AUTO 29012G20KT 10SM SCT038 06/00 A2968 RMK AO2 PK WND 32027/0228 SLP054 T00610000 53032
KHNB 140156Z AUTO 28018G24KT 10SM BKN050 08/M01 A2964 RMK AO2 SLP040 T00831011
KHNB 140056Z AUTO 25016KT 10SM OVC060 09/M03 A2961 RMK AO2 SLP031 T00891028
KHNB 132356Z AUTO 23013G20KT 10SM OVC060 08/M02 A2958 RMK AO2 SLP022 T00831022 10089 20050 51010
KHNB 132256Z AUTO 21015KT 10SM OVC060 08/M03 A2957 RMK AO2 SLP017 T00831028
KHNB 132156Z AUTO 23013KT 10SM BKN060 09/M04 A2957 RMK AO2 PK WND 24030/2058 SLP018 T00891039
KHNB 132056Z AUTO 23020G27KT 10SM FEW055 09/M04 A2955 RMK AO2 PK WND 24027/2056 SLP011 T00891044 56029
KHNB 131956Z AUTO 22016G30KT 10SM CLR 07/M06 A2960 RMK AO2 PK WND 21030/1948 SLP027 T00721056
KHNB 131856Z AUTO 20020G29KT 10SM FEW110 06/M07 A2957 RMK AO2 PK WND 19029/1852 PRESFR SLP018 T00611067